Time;durP1;ratioP1;P1;durP2;ratioP2;P2;SDS_P1;SDS_P2;PMS_P1;PMS_P2;Temp;Humidity;BMP_temperature;BMP_pressure;BME280_temperature;BME280_humidity;BME280_pressure;Samples;Min_cycle;Max_cycle;Signal;HPM_P1;HPM_P2
2022/01/05 00:02:39;;;;;;;8.93;6.38;;;;;;;11.39;72.06;100905.66;5035236;28;20103;-93
2022/01/05 00:09:04;;;;;;;8.40;6.32;;;;;;;11.37;72.17;100909.00;5071698;28;20052;-94
2022/01/05 00:11:35;;;;;;;10.18;6.32;;;;;;;11.42;71.72;100917.97;5038319;28;20028;-94
2022/01/05 00:14:03;;;;;;;8.68;6.38;;;;;;;11.22;71.76;100893.41;5032613;28;20064;-94
2022/01/05 00:16:33;;;;;;;8.82;6.60;;;;;;;11.19;71.98;100888.00;5018728;28;20497;-95
2022/01/05 00:19:00;;;;;;;8.90;6.50;;;;;;;11.13;72.17;100891.19;5018527;28;20033;-93
2022/01/05 00:21:25;;;;;;;8.05;6.35;;;;;;;11.21;71.97;100900.31;5035207;28;20017;-95
2022/01/05 00:24:10;;;;;;;8.75;6.38;;;;;;;11.27;71.58;100897.16;5026503;28;20036;-95
2022/01/05 00:26:48;;;;;;;8.18;6.13;;;;;;;11.25;71.46;100895.28;5034823;28;20418;-95
2022/01/05 00:29:18;;;;;;;9.15;6.55;;;;;;;11.24;71.90;100902.22;5034924;28;20037;-93
2022/01/05 00:31:53;;;;;;;8.43;6.25;;;;;;;11.34;71.78;100925.41;5035014;28;20129;-91
2022/01/05 00:34:52;;;;;;;8.23;6.47;;;;;;;11.43;71.87;100934.56;5033883;28;20116;-93
2022/01/05 00:37:53;;;;;;;8.85;6.53;;;;;;;11.40;71.83;100932.69;5038337;28;20028;-92
2022/01/05 00:43:44;;;;;;;8.40;6.53;;;;;;;11.31;72.19;100940.06;5072304;28;20044;-92
2022/01/05 00:46:30;;;;;;;8.00;6.20;;;;;;;11.32;72.25;100944.44;5029804;28;20033;-94
2022/01/05 00:49:13;;;;;;;9.48;6.57;;;;;;;11.12;72.04;100902.47;5013447;28;20391;-93
2022/01/05 00:51:41;;;;;;;9.07;6.18;;;;;;;11.32;71.92;100927.03;5039768;28;20107;-93
2022/01/05 00:54:16;;;;;;;9.43;7.18;;;;;;;11.16;72.05;100888.75;5015133;28;20036;-92
2022/01/05 00:56:43;;;;;;;9.90;7.00;;;;;;;11.26;71.89;100912.75;5017570;28;20484;-92
2022/01/05 00:59:45;;;;;;;9.07;6.82;;;;;;;11.36;72.20;100922.88;5017575;28;20099;-92
2022/01/05 01:02:23;;;;;;;8.32;6.18;;;;;;;11.20;71.91;100897.66;5050104;28;20111;-91
2022/01/05 01:05:18;;;;;;;9.30;6.53;;;;;;;11.29;72.15;100924.28;5015439;28;20064;-92
2022/01/05 01:08:04;;;;;;;8.90;6.57;;;;;;;11.36;71.67;100921.16;5015783;28;20111;-93
2022/01/05 01:10:43;;;;;;;8.82;6.70;;;;;;;11.16;72.02;100880.91;5031272;28;20087;-93
2022/01/05 01:13:31;;;;;;;9.80;6.30;;;;;;;11.31;72.10;100912.19;5034506;28;20017;-93
2022/01/05 01:15:57;;;;;;;8.80;6.53;;;;;;;11.19;71.94;100874.94;5051217;28;20037;-92
2022/01/05 01:21:44;;;;;;;10.27;6.93;;;;;;;11.27;71.87;100909.31;5055824;28;20121;-94
2022/01/05 01:24:13;;;;;;;9.68;6.93;;;;;;;11.24;71.88;100898.69;5037996;28;20064;-93
2022/01/05 01:26:50;;;;;;;9.55;6.80;;;;;;;11.18;72.03;100886.22;5054913;28;20074;-93
2022/01/05 01:29:40;;;;;;;10.07;6.88;;;;;;;11.30;72.01;100913.00;5040104;28;20037;-93
2022/01/05 01:32:12;;;;;;;10.05;7.22;;;;;;;11.12;72.25;100875.44;5054312;28;20056;-94
2022/01/05 01:34:56;;;;;;;9.85;7.07;;;;;;;11.19;71.96;100888.88;5037617;28;20032;-93
2022/01/05 01:37:26;;;;;;;10.95;7.43;;;;;;;11.13;71.98;100861.53;5033931;28;20071;-94
2022/01/05 01:40:34;;;;;;;9.43;6.85;;;;;;;11.31;71.87;100891.25;5018014;28;20033;-94
2022/01/05 01:43:52;;;;;;;8.75;6.32;;;;;;;11.37;71.92;100880.25;5035263;28;20415;-94
2022/01/05 01:46:55;;;;;;;8.45;6.50;;;;;;;11.27;72.29;100884.06;5035660;28;20048;-94
2022/01/05 01:49:20;;;;;;;10.10;7.05;;;;;;;11.04;72.48;100861.94;5053003;28;20028;-95
2022/01/05 01:51:58;;;;;;;11.23;7.53;;;;;;;11.29;72.31;100887.66;5040676;28;20031;-93
2022/01/05 01:54:29;;;;;;;9.90;7.35;;;;;;;11.16;71.74;100867.81;5041067;28;20403;-95
2022/01/05 01:57:09;;;;;;;8.57;6.40;;;;;;;11.05;71.83;100841.94;5057130;28;20121;-94
2022/01/05 02:00:17;;;;;;;9.32;6.97;;;;;;;11.30;71.88;100889.47;5029030;28;20485;-93
2022/01/05 02:02:46;;;;;;;9.35;6.95;;;;;;;11.11;71.87;100850.09;5049558;28;20028;-95
2022/01/05 02:05:18;;;;;;;12.10;6.90;;;;;;;11.08;72.13;100844.72;5040548;28;20123;-94
2022/01/05 02:07:45;;;;;;;11.40;7.85;;;;;;;11.22;72.19;100875.09;5040334;28;20127;-94
2022/01/05 02:10:44;;;;;;;9.48;7.15;;;;;;;11.28;72.36;100871.91;5036617;28;20052;-94
2022/01/05 02:13:20;;;;;;;11.80;7.68;;;;;;;11.12;71.72;100836.22;5037021;28;20033;-94
2022/01/05 02:15:51;;;;;;;10.02;6.80;;;;;;;11.07;72.15;100838.59;5039017;28;20032;-94
2022/01/05 02:18:59;;;;;;;9.98;7.20;;;;;;;11.26;72.07;100865.69;5040071;28;20486;-93
2022/01/05 02:22:20;;;;;;;10.75;7.03;;;;;;;11.21;72.45;100860.22;5056753;28;20039;-94
2022/01/05 02:24:48;;;;;;;11.30;7.45;;;;;;;11.15;72.09;100841.59;5056859;28;20493;-95
2022/01/05 02:27:33;;;;;;;9.77;6.85;;;;;;;11.24;71.92;100847.34;5036235;28;20037;-95
2022/01/05 02:30:25;;;;;;;9.90;6.90;;;;;;;11.27;72.10;100851.81;5020154;28;20040;-93
2022/01/05 02:32:57;;;;;;;8.38;6.50;;;;;;;11.14;71.72;100834.59;5054187;28;20100;-93
2022/01/05 02:35:33;;;;;;;8.65;6.32;;;;;;;10.95;71.94;100802.25;5020043;28;20083;-94
2022/01/05 02:41:21;;;;;;;9.43;7.05;;;;;;;11.15;72.19;100831.16;5074398;28;20529;-95
2022/01/05 02:50:30;;;;;;;9.05;6.55;;;;;;;10.90;71.93;100800.22;5070145;28;20575;-94
2022/01/05 02:53:09;;;;;;;11.50;7.07;;;;;;;11.17;71.99;100850.44;5073660;28;20036;-93
2022/01/05 02:55:53;;;;;;;11.20;7.47;;;;;;;11.16;72.55;100843.41;5023947;28;20036;-93
2022/01/05 02:58:33;;;;;;;9.73;7.32;;;;;;;10.91;72.46;100797.69;5039397;28;20020;-93
2022/01/05 03:01:17;;;;;;;10.10;7.07;;;;;;;11.03;71.92;100823.56;5039322;28;20039;-94
2022/01/05 03:04:23;;;;;;;10.23;7.43;;;;;;;11.20;71.97;100848.88;5055693;28;20038;-94
2022/01/05 03:06:57;;;;;;;10.10;6.90;;;;;;;11.20;72.47;100864.56;5055860;28;20055;-94
2022/01/05 03:09:36;;;;;;;11.10;7.32;;;;;;;11.06;72.21;100844.63;5038992;28;20032;-95
2022/01/05 03:12:09;;;;;;;10.60;7.10;;;;;;;11.16;72.15;100860.00;5039136;28;20117;-95
2022/01/05 03:14:36;;;;;;;9.80;7.10;;;;;;;10.78;72.11;100801.38;5055353;28;20415;-94
2022/01/05 03:20:22;;;;;;;9.90;7.03;;;;;;;11.17;71.96;100868.72;5073583;28;20035;-94
2022/01/05 03:23:03;;;;;;;11.13;7.05;;;;;;;11.03;72.55;100846.16;5038973;28;20490;-94
2022/01/05 03:26:08;;;;;;;9.60;6.70;;;;;;;11.20;72.24;100884.59;5019189;28;20076;-95
2022/01/05 03:28:36;;;;;;;8.77;6.70;;;;;;;11.00;72.12;100839.97;5035608;28;20506;-94
2022/01/05 03:31:04;;;;;;;9.55;7.07;;;;;;;10.96;72.00;100845.88;5018991;28;20494;-94
2022/01/05 03:34:16;;;;;;;9.02;6.40;;;;;;;11.20;72.36;100876.75;5025487;28;20032;-94
2022/01/05 03:36:48;;;;;;;9.93;6.72;;;;;;;10.73;72.60;100813.28;5055650;28;20055;-94
2022/01/05 03:39:26;;;;;;;9.00;6.40;;;;;;;11.15;72.19;100871.28;5043037;28;20037;-94
2022/01/05 03:41:52;;;;;;;10.63;6.68;;;;;;;11.09;72.39;100855.25;5049170;28;20376;-94
2022/01/05 03:44:18;;;;;;;10.23;6.93;;;;;;;11.04;72.61;100867.16;5039759;28;20091;-95
2022/01/05 03:47:29;;;;;;;7.88;6.22;;;;;;;11.11;72.37;100873.63;5053725;28;20037;-94
2022/01/05 03:49:55;;;;;;;10.32;6.88;;;;;;;10.95;71.99;100841.44;5038727;28;20147;-94
2022/01/05 03:52:29;;;;;;;7.88;6.13;;;;;;;10.92;72.70;100841.31;5038721;28;20124;-93
2022/01/05 03:54:57;;;;;;;9.05;6.30;;;;;;;11.06;72.19;100862.91;5038542;28;20042;-91
2022/01/05 03:57:24;;;;;;;9.10;6.40;;;;;;;11.11;72.27;100871.00;5038620;28;20092;-89
2022/01/05 04:00:04;;;;;;;8.82;6.68;;;;;;;10.77;72.25;100804.81;5034784;28;20422;-92
2022/01/05 04:06:05;;;;;;;9.38;6.32;;;;;;;11.09;72.19;100870.94;5052569;28;20036;-92
2022/01/05 04:08:35;;;;;;;10.00;6.90;;;;;;;10.86;72.38;100835.75;5034973;28;20037;-91
2022/01/05 04:11:12;;;;;;;10.38;6.80;;;;;;;11.12;72.26;100872.81;5049077;28;20035;-91
2022/01/05 04:13:37;;;;;;;8.68;6.55;;;;;;;11.04;72.64;100877.63;5038300;28;20025;-91
2022/01/05 04:16:19;;;;;;;9.10;7.05;;;;;;;10.98;71.86;100845.94;5053334;28;20032;-91
2022/01/05 04:18:45;;;;;;;9.45;6.43;;;;;;;11.08;72.62;100876.09;5054777;28;20032;-92
2022/01/05 04:21:29;;;;;;;8.25;6.57;;;;;;;11.13;72.25;100880.75;5054779;28;20480;-92
2022/01/05 04:24:17;;;;;;;10.70;6.53;;;;;;;11.08;72.57;100879.59;5037625;28;20040;-92
2022/01/05 04:29:45;;;;;;;9.55;6.72;;;;;;;10.99;72.28;100855.59;5072582;28;20400;-94
2022/01/05 04:32:19;;;;;;;10.23;7.40;;;;;;;10.93;72.29;100856.16;5054794;28;20116;-93
2022/01/05 04:34:59;;;;;;;10.10;6.55;;;;;;;10.77;72.29;100812.66;5027249;28;20087;-92
2022/01/05 04:37:55;;;;;;;12.18;7.30;;;;;;;11.02;72.58;100868.81;5018155;28;20120;-92
2022/01/05 04:41:00;;;;;;;10.13;6.57;;;;;;;11.08;72.38;100871.75;5034677;28;20036;-91
2022/01/05 04:43:58;;;;;;;10.13;7.05;;;;;;;11.04;72.48;100869.78;5036392;28;20036;-92
2022/01/05 04:46:41;;;;;;;9.60;7.00;;;;;;;11.02;72.50;100868.81;5039060;28;20059;-91
2022/01/05 04:49:37;;;;;;;8.93;6.47;;;;;;;11.09;72.46;100877.88;5076143;28;20067;-93
2022/01/05 04:55:47;;;;;;;10.27;7.45;;;;;;;11.08;72.28;100889.16;5075765;28;20062;-93
2022/01/05 04:58:17;;;;;;;9.38;6.60;;;;;;;10.99;72.57;100887.84;5075374;28;20062;-90
2022/01/05 05:00:46;;;;;;;9.98;6.95;;;;;;;10.98;72.36;100859.00;5057909;28;20095;-90
2022/01/05 05:03:14;;;;;;;9.98;6.28;;;;;;;10.79;72.27;100833.59;5041427;28;20025;-93
2022/01/05 05:05:45;;;;;;;9.07;6.47;;;;;;;10.95;72.18;100856.22;5039119;28;20028;-92
2022/01/05 05:11:45;;;;;;;9.98;7.25;;;;;;;11.06;71.99;100872.47;5075220;28;20120;-91
2022/01/05 05:14:14;;;;;;;9.93;6.70;;;;;;;10.95;72.34;100883.25;5035957;28;20025;-90
2022/01/05 05:16:40;;;;;;;9.73;6.68;;;;;;;11.02;72.32;100888.81;5036939;28;20115;-91
2022/01/05 05:19:24;;;;;;;10.05;7.07;;;;;;;11.03;72.38;100901.03;5037178;28;20028;-91
2022/01/05 05:21:50;;;;;;;10.70;7.55;;;;;;;10.85;72.49;100857.44;5021069;28;20033;-91
2022/01/05 05:24:17;;;;;;;9.48;6.78;;;;;;;10.86;72.34;100853.09;5027598;28;20036;-94
2022/01/05 05:27:27;;;;;;;9.35;6.43;;;;;;;11.05;72.16;100889.88;5057731;28;20635;-93
2022/01/05 05:30:03;;;;;;;9.32;6.80;;;;;;;10.83;72.33;100866.00;5057245;28;20033;-96
2022/01/05 05:33:16;;;;;;;10.13;7.22;;;;;;;11.05;72.30;100886.34;5045509;28;20025;-95
2022/01/05 05:35:50;;;;;;;10.45;7.13;;;;;;;10.76;72.92;100857.84;5057121;28;20178;-95
2022/01/05 05:38:26;;;;;;;8.82;6.75;;;;;;;10.93;72.05;100857.88;5033222;28;20028;-94
2022/01/05 05:41:15;;;;;;;10.57;7.70;;;;;;;10.99;72.81;100877.38;5040145;28;20520;-94
2022/01/05 05:43:57;;;;;;;9.20;6.93;;;;;;;10.77;72.70;100854.44;5026037;28;20039;-93
2022/01/05 05:46:58;;;;;;;10.48;7.05;;;;;;;10.96;72.87;100882.44;5037858;28;20143;-94
2022/01/05 05:49:51;;;;;;;8.50;6.40;;;;;;;10.91;72.65;100883.91;5040734;28;20078;-94
2022/01/05 05:52:42;;;;;;;9.02;6.90;;;;;;;10.98;72.82;100888.66;5037225;28;20037;-93
2022/01/05 05:55:08;;;;;;;9.77;6.95;;;;;;;10.77;72.62;100863.97;5053828;28;20033;-92
2022/01/05 05:57:44;;;;;;;10.27;7.07;;;;;;;10.50;72.89;100824.19;5054403;28;20041;-94
2022/01/05 06:00:32;;;;;;;9.07;7.10;;;;;;;10.84;73.22;100891.31;5033629;28;20487;-94
2022/01/05 06:03:08;;;;;;;10.15;6.95;;;;;;;10.62;72.89;100847.47;5034024;28;20025;-94
2022/01/05 06:05:57;;;;;;;8.70;6.60;;;;;;;11.09;72.27;100883.09;5034111;28;20060;-94
2022/01/05 06:09:02;;;;;;;8.95;6.53;;;;;;;11.06;72.01;100886.44;5033512;28;20076;-94
2022/01/05 06:11:58;;;;;;;10.32;7.25;;;;;;;10.97;72.84;100892.06;5033651;28;20469;-94
2022/01/05 06:14:50;;;;;;;9.68;6.70;;;;;;;10.92;73.17;100884.78;5016984;28;20037;-94
2022/01/05 06:17:33;;;;;;;11.50;6.70;;;;;;;10.65;73.22;100853.75;5033790;28;20032;-94
2022/01/05 06:20:10;;;;;;;9.63;7.13;;;;;;;10.90;73.00;100882.13;5033962;28;20029;-93
2022/01/05 06:22:59;;;;;;;9.27;6.65;;;;;;;10.96;72.60;100885.06;5033303;28;20064;-92
2022/01/05 06:25:53;;;;;;;10.07;6.50;;;;;;;10.85;72.94;100888.78;5017296;28;20033;-94
2022/01/05 06:28:28;;;;;;;8.88;6.68;;;;;;;10.75;73.29;100874.34;5033256;28;20064;-94
2022/01/05 06:31:04;;;;;;;9.73;7.13;;;;;;;10.70;72.62;100854.00;5033787;28;20026;-92
2022/01/05 06:33:35;;;;;;;11.23;7.40;;;;;;;10.79;72.71;100863.25;5043988;28;20078;-94
2022/01/05 06:36:16;;;;;;;10.02;7.00;;;;;;;10.93;72.66;100895.34;5040974;28;20091;-93
2022/01/05 06:38:42;;;;;;;11.18;6.75;;;;;;;11.01;72.17;100898.38;5058755;28;20035;-93
2022/01/05 06:41:25;;;;;;;9.27;6.65;;;;;;;10.99;72.50;100903.50;5041664;28;20021;-95
2022/01/05 06:44:08;;;;;;;10.10;7.28;;;;;;;10.71;73.39;100902.78;5053751;28;20036;-93
2022/01/05 06:46:35;;;;;;;9.20;7.13;;;;;;;10.52;73.10;100852.19;5023747;28;20033;-93
2022/01/05 06:49:01;;;;;;;9.55;7.03;;;;;;;10.78;72.73;100881.44;5019876;28;20029;-87
2022/01/05 06:51:27;;;;;;;9.23;6.78;;;;;;;10.66;73.18;100888.59;5031161;28;20045;-88
2022/01/05 06:53:54;;;;;;;8.43;6.35;;;;;;;10.76;73.30;100907.47;5042407;28;20025;-90
2022/01/05 06:56:24;;;;;;;9.32;6.82;;;;;;;10.78;73.12;100902.34;5026896;28;20030;-89
2022/01/05 06:58:54;;;;;;;8.63;6.60;;;;;;;10.60;73.56;100873.47;5050772;28;20438;-91
2022/01/05 07:01:21;;;;;;;9.38;6.75;;;;;;;10.60;72.88;100855.19;5033550;28;20033;-89
2022/01/05 07:03:47;;;;;;;8.10;6.50;;;;;;;10.57;72.95;100853.31;5050889;28;20100;-91
2022/01/05 07:06:13;;;;;;;10.38;6.50;;;;;;;10.32;73.33;100811.00;5034721;28;20175;-88
2022/01/05 07:08:39;;;;;;;9.80;6.88;;;;;;;10.75;73.59;100899.53;5050800;28;20490;-87
2022/01/05 07:11:05;;;;;;;8.93;6.68;;;;;;;10.39;73.21;100832.34;5051278;28;20039;-87
2022/01/05 07:13:31;;;;;;;9.90;7.03;;;;;;;10.92;73.21;100895.25;5051018;28;20017;-87
2022/01/05 07:15:57;;;;;;;9.85;7.00;;;;;;;10.85;72.80;100893.13;5032346;28;20033;-88
2022/01/05 07:18:22;;;;;;;8.82;6.72;;;;;;;10.63;73.66;100875.38;5035749;28;20021;-88
2022/01/05 07:20:48;;;;;;;9.18;6.70;;;;;;;10.66;73.05;100880.75;5028637;28;20044;-89
2022/01/05 07:23:38;;;;;;;9.80;6.47;;;;;;;10.59;73.88;100908.25;5049674;28;20044;-89
2022/01/05 07:26:29;;;;;;;;;;;;;;;;;;;;;
2022/01/05 07:29:08;;;;;;;7.53;5.95;;;;;;;10.31;74.01;100843.16;5055298;28;20401;-90
2022/01/05 07:31:41;;;;;;;9.02;6.68;;;;;;;10.41;73.87;100855.88;5031784;28;20096;-88
2022/01/05 07:34:17;;;;;;;8.93;6.90;;;;;;;9.99;73.14;100762.22;5020142;28;20094;-87
2022/01/05 07:36:49;;;;;;;11.57;7.90;;;;;;;10.18;73.40;100808.50;5035975;28;20075;-86
2022/01/05 07:39:30;;;;;;;8.73;6.75;;;;;;;9.96;73.10;100767.25;5030406;28;20199;-87
2022/01/05 07:42:03;;;;;;;8.82;6.78;;;;;;;10.80;73.42;100912.06;5030486;28;20082;-86
2022/01/05 07:44:34;;;;;;;8.57;6.40;;;;;;;10.63;73.58;100902.38;5033108;28;20051;-88
2022/01/05 07:47:04;;;;;;;9.85;6.80;;;;;;;9.83;73.70;100774.31;5020895;28;20029;-88
2022/01/05 07:49:34;;;;;;;8.68;6.40;;;;;;;10.52;74.29;100909.63;5013308;28;20118;-88
2022/01/05 07:52:05;;;;;;;9.50;6.70;;;;;;;9.80;74.06;100759.38;5030422;28;20140;-87
2022/01/05 07:54:32;;;;;;;9.13;6.40;;;;;;;10.62;73.20;100887.53;5017446;28;20678;-87
2022/01/05 07:56:58;;;;;;;8.93;6.45;;;;;;;10.65;73.62;100913.81;5056653;28;20016;-87
2022/01/05 07:59:24;;;;;;;9.65;6.65;;;;;;;10.35;73.59;100843.41;5052294;28;20058;-86
2022/01/05 08:01:50;;;;;;;8.55;6.40;;;;;;;10.61;73.42;100875.28;5052835;28;20111;-88
2022/01/05 08:04:16;;;;;;;8.63;6.15;;;;;;;10.17;73.96;100814.53;5052312;28;20033;-86
2022/01/05 08:06:42;;;;;;;8.57;6.63;;;;;;;10.79;72.87;100880.63;5070782;28;20048;-87
2022/01/05 08:09:07;;;;;;;;;;;;;;;10.90;73.03;100909.94;5036589;28;20488;-87
2022/01/05 08:11:33;;;;;;;8.07;5.90;;;;;;;10.55;72.82;100839.28;5032503;28;20031;-87
2022/01/05 08:13:59;;;;;;;9.00;6.68;;;;;;;10.88;72.64;100899.44;5043958;28;20032;-86
2022/01/05 08:16:25;;;;;;;8.20;6.47;;;;;;;10.93;72.76;100897.94;5063502;28;20528;-86
2022/01/05 08:18:50;;;;;;;8.35;6.30;;;;;;;10.75;72.72;100866.50;5070573;28;20029;-86
2022/01/05 08:21:17;;;;;;;8.13;6.30;;;;;;;10.89;72.73;100906.44;5055202;28;20103;-86
2022/01/05 08:23:43;;;;;;;8.73;6.28;;;;;;;10.95;72.75;100906.78;5074039;28;20021;-87
2022/01/05 08:26:09;;;;;;;8.70;6.68;;;;;;;10.89;72.90;100895.09;5056360;28;20090;-85
2022/01/05 08:28:35;;;;;;;8.90;6.35;;;;;;;10.90;72.93;100900.41;5056736;28;20056;-88
2022/01/05 08:31:01;;;;;;;8.15;6.28;;;;;;;10.83;72.70;100876.47;5056451;28;20060;-88
2022/01/05 08:33:27;;;;;;;7.60;6.03;;;;;;;11.03;72.20;100906.28;5074548;28;20031;-88
2022/01/05 08:35:53;;;;;;;7.55;6.13;;;;;;;10.98;72.64;100906.94;5056258;28;20033;-88
2022/01/05 08:38:19;;;;;;;9.27;6.20;;;;;;;10.97;72.37;100912.97;5041055;28;20040;-91
2022/01/05 08:40:45;;;;;;;9.48;5.85;;;;;;;10.69;73.13;100881.84;5043543;28;20041;-89
2022/01/05 08:43:13;;;;;;;;;;;;;;;11.06;72.60;100914.31;5058459;28;20036;-94
2022/01/05 08:45:57;;;;;;;8.25;5.95;;;;;;;10.91;73.18;100919.59;5042249;28;19919;-96
2022/01/05 08:48:28;;;;;;;8.93;6.43;;;;;;;10.72;72.88;100886.31;5059917;28;20415;-96
2022/01/05 08:50:54;;;;;;;7.85;6.00;;;;;;;10.87;72.84;100887.16;5038762;28;20136;-94
2022/01/05 08:53:27;;;;;;;9.32;6.68;;;;;;;10.63;72.55;100857.09;5050668;28;20136;-93
2022/01/05 08:55:53;;;;;;;8.70;6.47;;;;;;;10.75;73.30;100896.94;5075435;28;20024;-95
2022/01/05 08:58:21;;;;;;;8.77;6.43;;;;;;;10.86;73.08;100910.56;5040873;28;20469;-96
2022/01/05 09:00:48;;;;;;;7.82;6.10;;;;;;;10.96;72.50;100887.69;5057146;28;20037;-96
2022/01/05 09:03:27;;;;;;;9.10;6.53;;;;;;;11.00;72.69;100899.16;5041223;28;20052;-94
2022/01/05 09:06:12;;;;;;;8.43;6.53;;;;;;;11.11;72.50;100891.91;5037405;28;20091;-91
2022/01/05 09:08:41;;;;;;;7.25;5.93;;;;;;;10.93;72.14;100850.03;5038159;28;20064;-92
2022/01/05 09:11:21;;;;;;;9.60;6.78;;;;;;;10.63;72.46;100816.22;5025857;28;20051;-94
2022/01/05 09:14:03;;;;;;;8.50;6.22;;;;;;;11.07;72.30;100877.81;5039947;28;20029;-90
2022/01/05 09:17:13;;;;;;;7.72;6.00;;;;;;;11.18;71.84;100865.31;5045355;28;20029;-92
2022/01/05 09:19:47;;;;;;;8.95;6.32;;;;;;;11.02;72.07;100840.06;5056271;28;20029;-96
2022/01/05 09:22:33;;;;;;;10.00;6.50;;;;;;;11.15;72.32;100847.75;5041055;28;20045;-96
2022/01/05 09:25:42;;;;;;;7.57;5.88;;;;;;;11.19;72.32;100840.94;5068039;28;20171;-94
2022/01/05 09:28:09;;;;;;;;;;;;;;;11.13;72.30;100840.63;5040696;28;20060;-93
2022/01/05 09:30:49;;;;;;;;;;;;;;;11.29;71.92;100839.72;5038330;28;19966;-94
2022/01/05 09:36:44;;;;;;;9.10;6.72;;;;;;;10.79;72.35;100790.13;5055615;28;20052;-92
2022/01/05 09:42:41;;;;;;;8.73;6.28;;;;;;;11.14;72.30;100827.66;5052885;28;20089;-92
2022/01/05 09:45:28;;;;;;;9.35;6.50;;;;;;;11.11;72.48;100827.50;5073149;28;20031;-88
2022/01/05 09:48:15;;;;;;;10.03;6.53;;;;;;;11.17;72.57;100822.56;5036820;28;20221;-91
2022/01/05 09:51:05;;;;;;;9.65;6.85;;;;;;;11.00;72.27;100797.25;5054245;28;20097;-89
2022/01/05 09:53:35;;;;;;;8.95;6.22;;;;;;;10.93;72.17;100772.53;5040010;28;20028;-90
2022/01/05 09:56:03;;;;;;;9.35;6.75;;;;;;;11.08;72.59;100818.59;5068886;28;20094;-88
2022/01/05 09:58:30;;;;;;;9.18;6.75;;;;;;;10.86;73.30;100803.47;5032032;28;20031;-91
2022/01/05 10:01:05;;;;;;;10.65;6.72;;;;;;;10.93;72.74;100792.56;5060034;28;20032;-91
2022/01/05 10:03:54;;;;;;;8.20;6.43;;;;;;;11.04;73.13;100821.84;5059675;28;20085;-92
2022/01/05 10:06:20;;;;;;;9.13;6.80;;;;;;;11.15;72.53;100819.00;5094577;28;20020;-92
2022/01/05 10:08:47;;;;;;;8.63;6.78;;;;;;;11.08;72.91;100821.19;5063212;28;20033;-92
2022/01/05 10:11:25;;;;;;;9.02;6.78;;;;;;;11.08;72.45;100809.03;5056259;28;20121;-90
2022/01/05 10:14:06;;;;;;;9.27;6.63;;;;;;;10.88;72.91;100794.00;5026989;28;20414;-92
2022/01/05 10:16:40;;;;;;;9.68;6.65;;;;;;;11.11;72.49;100803.97;5039719;28;20532;-92
2022/01/05 10:19:22;;;;;;;9.45;6.43;;;;;;;10.95;72.56;100763.06;5032589;28;20024;-92
2022/01/05 10:25:36;;;;;;;10.77;7.50;;;;;;;11.30;72.36;100815.38;5054269;28;20048;-92
2022/01/05 10:28:04;;;;;;;9.57;7.07;;;;;;;11.01;72.78;100775.56;5056290;28;20564;-89
2022/01/05 10:30:43;;;;;;;8.80;6.63;;;;;;;10.97;72.52;100757.94;5035397;28;20066;-92
2022/01/05 10:33:09;;;;;;;9.02;6.68;;;;;;;10.82;73.06;100754.53;5025939;28;20037;-92
2022/01/05 10:35:54;;;;;;;8.43;6.72;;;;;;;11.03;72.38;100754.72;5036512;28;20055;-91
2022/01/05 10:38:28;;;;;;;11.48;7.15;;;;;;;11.21;72.91;100790.53;5019366;28;20037;-91
2022/01/05 10:40:56;;;;;;;9.50;6.93;;;;;;;10.92;73.33;100760.31;5031743;28;20025;-92
2022/01/05 10:43:22;;;;;;;10.55;6.95;;;;;;;11.20;72.60;100780.03;5034564;28;20422;-91
2022/01/05 10:46:07;;;;;;;10.13;7.00;;;;;;;11.18;72.79;100790.41;5049506;28;20020;-92
2022/01/05 10:48:39;;;;;;;9.48;6.65;;;;;;;11.13;72.78;100781.44;5035801;28;20094;-91
2022/01/05 10:51:06;;;;;;;8.90;6.60;;;;;;;11.19;72.73;100781.72;5018220;28;20042;-92
2022/01/05 10:53:31;;;;;;;9.20;6.65;;;;;;;11.03;72.76;100768.69;5019283;28;20055;-92
2022/01/05 10:56:26;;;;;;;9.65;7.50;;;;;;;11.07;72.83;100761.91;5019075;28;20693;-92
2022/01/05 10:58:56;;;;;;;11.13;7.05;;;;;;;10.99;72.94;100748.47;5035766;28;20029;-91
2022/01/05 11:01:29;;;;;;;8.23;6.57;;;;;;;10.80;73.03;100720.47;5027345;28;20060;-92
2022/01/05 11:04:22;;;;;;;9.50;7.30;;;;;;;11.29;72.48;100775.25;5055418;28;20055;-93
2022/01/05 11:07:05;;;;;;;10.02;6.95;;;;;;;11.24;73.05;100779.38;5055311;28;20391;-91
2022/01/05 11:09:31;;;;;;;9.38;7.30;;;;;;;11.18;73.14;100758.16;5055383;28;20444;-92
2022/01/05 11:12:10;;;;;;;10.13;7.30;;;;;;;10.99;72.96;100722.34;5055210;28;20405;-91
2022/01/05 11:14:42;;;;;;;10.48;7.03;;;;;;;10.81;73.18;100714.41;5039314;28;20029;-92
2022/01/05 11:17:07;;;;;;;9.43;7.10;;;;;;;11.20;73.16;100730.38;5074664;28;20026;-93
2022/01/05 11:19:39;;;;;;;9.73;7.25;;;;;;;11.12;73.47;100755.22;5075169;28;20032;-91
2022/01/05 11:22:28;;;;;;;10.38;7.18;;;;;;;11.05;73.85;100737.41;5074687;28;20040;-92
2022/01/05 11:25:20;;;;;;;10.48;7.53;;;;;;;11.07;74.05;100748.84;5055304;28;20093;-91
2022/01/05 11:28:06;;;;;;;10.00;7.30;;;;;;;11.12;74.15;100737.81;5039059;28;20025;-94
2022/01/05 11:30:48;;;;;;;10.32;7.22;;;;;;;10.94;73.08;100677.69;5023150;28;20030;-93
2022/01/05 11:36:35;;;;;;;10.23;7.32;;;;;;;11.19;73.55;100723.34;5072837;28;20039;-93
2022/01/05 11:39:07;;;;;;;10.73;7.20;;;;;;;11.27;73.25;100732.47;5054796;28;20024;-94
2022/01/05 11:41:40;;;;;;;9.60;7.25;;;;;;;11.30;73.14;100729.09;5036088;28;20024;-92
2022/01/05 11:44:26;;;;;;;10.60;7.25;;;;;;;11.27;73.46;100731.56;5024403;28;20402;-93
2022/01/05 11:47:18;;;;;;;9.50;6.70;;;;;;;11.39;73.38;100719.13;5035141;28;20029;-92
2022/01/05 11:49:44;;;;;;;10.38;7.35;;;;;;;11.04;73.88;100680.75;5034763;28;20418;-92
2022/01/05 11:52:56;;;;;;;9.80;7.43;;;;;;;11.29;73.64;100715.13;5036418;28;20044;-90
2022/01/05 11:59:24;;;;;;;9.18;7.13;;;;;;;11.05;74.86;100698.22;5092542;28;20039;-94
2022/01/05 12:02:13;;;;;;;10.70;7.15;;;;;;;11.24;73.67;100700.97;5056560;28;20028;-94
2022/01/05 12:08:00;;;;;;;11.00;7.18;;;;;;;11.07;73.76;100673.06;5072220;28;20051;-94
2022/01/05 12:10:52;;;;;;;10.38;7.72;;;;;;;10.93;74.45;100660.19;5034413;28;20483;-93
2022/01/05 12:13:38;;;;;;;11.57;7.55;;;;;;;11.28;74.08;100695.06;5033920;28;20119;-92
2022/01/05 12:16:06;;;;;;;10.63;7.43;;;;;;;10.94;74.56;100661.09;5044008;28;20410;-92
2022/01/05 12:18:41;;;;;;;9.40;7.38;;;;;;;11.10;73.76;100657.53;5042119;28;20039;-92
2022/01/05 12:21:40;;;;;;;9.07;7.20;;;;;;;10.85;74.49;100626.66;5037315;28;20021;-92
2022/01/05 12:24:08;;;;;;;10.70;7.60;;;;;;;10.96;73.72;100629.03;4986072;28;20042;-92
2022/01/05 12:26:34;;;;;;;9.02;6.97;;;;;;;11.09;72.71;100617.47;5013668;28;20030;-91
2022/01/05 12:29:02;;;;;;;9.68;7.25;;;;;;;11.47;72.61;100668.09;5042082;28;20490;-91
2022/01/05 12:31:52;;;;;;;10.65;7.78;;;;;;;11.42;73.57;100674.81;5040658;28;20028;-94
2022/01/05 12:38:04;;;;;;;9.80;7.70;;;;;;;11.57;72.93;100675.53;5052412;28;20040;-92
2022/01/05 12:40:49;;;;;;;10.32;7.60;;;;;;;11.85;71.65;100669.00;5028109;28;20029;-94
2022/01/05 12:43:19;;;;;;;10.07;7.63;;;;;;;11.75;71.82;100666.81;5052866;28;20029;-93
2022/01/05 12:45:50;;;;;;;9.27;7.05;;;;;;;11.58;72.65;100672.13;5034911;28;20097;-94
2022/01/05 12:48:31;;;;;;;11.05;8.00;;;;;;;11.81;71.55;100668.00;5043596;28;20032;-94
2022/01/05 12:51:14;;;;;;;10.50;7.63;;;;;;;11.82;71.38;100667.16;5033349;28;20044;-92
2022/01/05 12:53:56;;;;;;;10.48;7.40;;;;;;;11.87;71.48;100656.91;5034372;28;20490;-91
2022/01/05 12:56:46;;;;;;;12.73;7.93;;;;;;;11.87;71.59;100656.00;5036231;28;20036;-91
2022/01/05 12:59:19;;;;;;;10.85;7.85;;;;;;;11.87;71.35;100654.28;5053799;28;20032;-89
2022/01/05 13:01:45;;;;;;;10.55;7.60;;;;;;;11.84;71.35;100653.28;5055666;28;20024;-88
2022/01/05 13:04:15;;;;;;;10.75;7.40;;;;;;;11.96;71.07;100656.50;5064749;28;20052;-90
2022/01/05 13:06:43;;;;;;;8.73;7.07;;;;;;;11.91;71.19;100665.84;5041880;28;20111;-89
2022/01/05 13:09:14;;;;;;;11.57;7.57;;;;;;;11.60;70.84;100597.25;5059081;28;20021;-86
2022/01/05 13:11:44;;;;;;;10.50;7.25;;;;;;;11.89;71.33;100662.25;5046364;28;20111;-90
2022/01/05 13:14:14;;;;;;;10.52;7.60;;;;;;;11.78;71.87;100659.97;5056892;28;20034;-89